Time;durP1;ratioP1;P1;durP2;ratioP2;P2;SDS_P1;SDS_P2;PMS_P1;PMS_P2;Temp;Humidity;BMP_temperature;BMP_pressure;BME280_temperature;BME280_humidity;BME280_pressure;Samples;Min_cycle;Max_cycle;Signal;HPM_P1;HPM_P2
2021/03/10 00:00:35;;;;;;;52.08;28.83;;;23.00;27.00;;;;;;6228417;28;83628;-67
2021/03/10 00:03:36;;;;;;;54.63;30.05;;;23.00;26.90;;;;;;6230540;28;83100;-68
2021/03/10 00:06:37;;;;;;;56.67;30.75;;;23.00;26.90;;;;;;6243773;27;83465;-68
2021/03/10 00:09:37;;;;;;;56.28;30.27;;;23.00;27.40;;;;;;6237017;27;84090;-68
2021/03/10 00:12:38;;;;;;;54.28;30.08;;;23.00;26.80;;;;;;6243441;28;84298;-68
2021/03/10 00:15:38;;;;;;;56.42;30.90;;;23.00;26.80;;;;;;6238480;28;83610;-67
2021/03/10 00:18:39;;;;;;;52.42;28.85;;;23.00;26.80;;;;;;6234144;28;85788;-68
2021/03/10 00:21:39;;;;;;;59.83;31.27;;;23.00;26.80;;;;;;6235814;28;83391;-69
2021/03/10 00:24:40;;;;;;;53.45;30.02;;;23.00;26.80;;;;;;6233156;28;85875;-69
2021/03/10 00:27:40;;;;;;;60.17;31.40;;;22.90;26.80;;;;;;6227593;28;83348;-69
2021/03/10 00:30:41;;;;;;;52.38;29.65;;;22.90;26.80;;;;;;6216828;28;83122;-68
2021/03/10 00:33:42;;;;;;;58.53;30.80;;;22.90;26.80;;;;;;6241352;28;83407;-69
2021/03/10 00:36:42;;;;;;;55.92;30.90;;;22.90;26.80;;;;;;6227679;28;85647;-68
2021/03/10 00:39:43;;;;;;;55.38;30.40;;;22.90;26.70;;;;;;6242542;28;83916;-68
2021/03/10 00:42:43;;;;;;;52.67;29.00;;;23.00;26.80;;;;;;6234716;27;83550;-68
2021/03/10 00:45:44;;;;;;;52.70;29.25;;;22.90;26.80;;;;;;6234948;28;83949;-68
2021/03/10 00:48:44;;;;;;;57.08;30.20;;;22.90;26.80;;;;;;6245563;28;83069;-67
2021/03/10 00:51:45;;;;;;;56.38;30.88;;;22.90;26.80;;;;;;6234467;28;83196;-68
2021/03/10 00:54:45;;;;;;;58.53;30.58;;;22.90;26.70;;;;;;6232262;28;84276;-68
2021/03/10 00:57:46;;;;;;;54.30;30.48;;;22.90;26.70;;;;;;6241782;28;84535;-68
2021/03/10 01:00:46;;;;;;;53.85;29.70;;;22.90;26.70;;;;;;6235006;27;83481;-69
2021/03/10 01:03:47;;;;;;;53.72;29.83;;;22.90;26.70;;;;;;6243193;28;84434;-69
2021/03/10 01:06:47;;;;;;;56.78;30.50;;;22.90;26.70;;;;;;6232369;28;84224;-69
2021/03/10 01:09:48;;;;;;;54.70;29.85;;;22.90;26.70;;;;;;6232054;27;84171;-69
2021/03/10 01:12:48;;;;;;;52.65;29.13;;;22.90;26.70;;;;;;6232504;27;83337;-69
2021/03/10 01:15:49;;;;;;;50.25;29.38;;;22.90;26.80;;;;;;6237919;28;83809;-69
2021/03/10 01:18:49;;;;;;;54.53;30.52;;;22.80;26.60;;;;;;6231692;28;83680;-70
2021/03/10 01:21:50;;;;;;;54.67;30.48;;;22.80;26.60;;;;;;6237108;28;84049;-69
2021/03/10 01:24:50;;;;;;;52.33;29.90;;;22.80;26.50;;;;;;6247094;28;83510;-69
2021/03/10 01:27:51;;;;;;;54.65;29.88;;;22.80;26.60;;;;;;6240984;28;82875;-69
2021/03/10 01:30:51;;;;;;;51.40;28.85;;;22.80;26.50;;;;;;6243499;28;83856;-69
2021/03/10 01:33:52;;;;;;;55.47;30.48;;;22.80;26.60;;;;;;6215927;28;83722;-71
2021/03/10 01:36:52;;;;;;;52.75;29.73;;;22.80;26.50;;;;;;6221638;28;86079;-68
2021/03/10 01:39:53;;;;;;;56.50;29.90;;;22.80;26.50;;;;;;6228013;28;83270;-67
2021/03/10 01:42:53;;;;;;;59.95;31.08;;;22.80;26.50;;;;;;6230139;28;83213;-67
2021/03/10 01:45:54;;;;;;;53.47;30.38;;;22.80;26.50;;;;;;6233132;28;83398;-69
2021/03/10 01:48:55;;;;;;;52.88;27.90;;;22.80;26.40;;;;;;6229922;27;83369;-68
2021/03/10 01:51:55;;;;;;;55.83;29.98;;;22.80;26.40;;;;;;6239698;28;83505;-68
2021/03/10 01:54:56;;;;;;;56.13;30.38;;;22.80;26.40;;;;;;6235551;28;83373;-68
2021/03/10 01:57:56;;;;;;;55.10;29.40;;;22.80;26.40;;;;;;6240394;28;83070;-69
2021/03/10 02:00:57;;;;;;;57.33;29.92;;;22.80;26.40;;;;;;6226978;27;84005;-69
2021/03/10 02:03:57;;;;;;;54.95;30.27;;;22.80;26.40;;;;;;6236074;28;83998;-69
2021/03/10 02:06:58;;;;;;;56.40;28.85;;;22.80;26.40;;;;;;6231338;28;83490;-70
2021/03/10 02:09:58;;;;;;;51.10;29.23;;;22.80;26.30;;;;;;6233403;28;83215;-69
2021/03/10 02:12:59;;;;;;;54.13;29.77;;;22.80;26.30;;;;;;6234829;28;83301;-68
2021/03/10 02:15:59;;;;;;;52.17;28.88;;;22.80;26.30;;;;;;6230984;28;85759;-68
2021/03/10 02:19:00;;;;;;;51.95;29.35;;;22.80;26.20;;;;;;6233130;28;83747;-68
2021/03/10 02:22:00;;;;;;;52.58;30.23;;;22.80;26.30;;;;;;6238468;28;83597;-70
2021/03/10 02:25:01;;;;;;;55.78;31.10;;;22.70;26.20;;;;;;6233451;27;83454;-68
2021/03/10 02:28:01;;;;;;;52.45;28.45;;;22.70;26.20;;;;;;6208528;27;83822;-68
2021/03/10 02:31:02;;;;;;;54.05;28.98;;;22.80;26.20;;;;;;6239041;28;82869;-67
2021/03/10 02:34:02;;;;;;;50.10;29.40;;;22.80;26.20;;;;;;6238620;28;83399;-68
2021/03/10 02:37:03;;;;;;;61.08;29.00;;;22.80;26.10;;;;;;6239009;28;83538;-67
2021/03/10 02:40:04;;;;;;;54.30;29.10;;;22.70;26.10;;;;;;6221731;28;82888;-68
2021/03/10 02:43:04;;;;;;;54.10;30.17;;;22.80;26.70;;;;;;6229202;28;83473;-66
2021/03/10 02:46:05;;;;;;;55.42;29.52;;;22.70;26.20;;;;;;6228881;28;83599;-66
2021/03/10 02:49:05;;;;;;;50.63;29.15;;;22.80;26.20;;;;;;6236132;28;83461;-67
2021/03/10 02:52:06;;;;;;;52.78;28.80;;;22.70;26.10;;;;;;6231433;28;83572;-66
2021/03/10 02:55:06;;;;;;;53.30;28.15;;;22.70;26.10;;;;;;6189791;28;85823;-67
2021/03/10 02:58:07;;;;;;;61.35;30.63;;;22.70;26.10;;;;;;6232685;28;83222;-67
2021/03/10 03:01:07;;;;;;;52.67;28.63;;;22.80;26.10;;;;;;6240278;27;83086;-67
2021/03/10 03:04:08;;;;;;;50.80;28.90;;;22.70;26.00;;;;;;6232401;28;83852;-68
2021/03/10 03:07:08;;;;;;;56.78;30.27;;;22.70;26.00;;;;;;6228858;28;83998;-68
2021/03/10 03:10:09;;;;;;;55.00;28.63;;;22.70;26.00;;;;;;6230259;28;85114;-68
2021/03/10 03:13:09;;;;;;;50.78;28.60;;;22.70;26.00;;;;;;6235543;28;83365;-67
2021/03/10 03:16:10;;;;;;;50.88;28.70;;;22.60;25.90;;;;;;6213848;28;85498;-67
2021/03/10 03:19:10;;;;;;;54.45;29.13;;;22.70;25.90;;;;;;6236928;28;83258;-67
2021/03/10 03:22:11;;;;;;;52.25;29.15;;;22.70;25.90;;;;;;6234593;28;83299;-67
2021/03/10 03:25:11;;;;;;;54.80;30.98;;;22.60;25.90;;;;;;6241653;28;83795;-67
2021/03/10 03:28:12;;;;;;;48.40;27.90;;;22.70;25.90;;;;;;6236636;28;83118;-67
2021/03/10 03:31:12;;;;;;;55.78;28.63;;;22.60;25.80;;;;;;6237710;28;83496;-67
2021/03/10 03:34:13;;;;;;;55.95;30.90;;;22.60;25.80;;;;;;6228441;28;83890;-66
2021/03/10 03:37:14;;;;;;;52.97;29.50;;;22.60;25.80;;;;;;6234009;28;83135;-67
2021/03/10 03:40:14;;;;;;;57.28;29.42;;;22.70;25.80;;;;;;6240400;28;82811;-66
2021/03/10 03:43:15;;;;;;;48.28;28.23;;;22.70;25.80;;;;;;6218857;28;85008;-66
2021/03/10 03:46:15;;;;;;;55.40;29.63;;;22.60;25.70;;;;;;6240591;28;84395;-67
2021/03/10 03:49:16;;;;;;;52.63;28.90;;;22.60;25.70;;;;;;6237306;28;83815;-67
2021/03/10 03:52:16;;;;;;;54.58;28.45;;;22.70;25.80;;;;;;6237064;28;83304;-67
2021/03/10 03:55:17;;;;;;;51.67;27.40;;;22.70;25.90;;;;;;6229216;28;83051;-68
2021/03/10 03:58:17;;;;;;;52.17;28.48;;;22.60;25.80;;;;;;6231837;28;83831;-68
2021/03/10 04:01:18;;;;;;;54.50;28.70;;;22.60;25.80;;;;;;6225930;28;83445;-68
2021/03/10 04:04:18;;;;;;;50.47;28.48;;;22.60;26.30;;;;;;6223961;28;83487;-67
2021/03/10 04:07:19;;;;;;;50.70;28.40;;;22.60;25.80;;;;;;6234548;28;83101;-69
2021/03/10 04:10:19;;;;;;;47.55;27.40;;;22.60;25.90;;;;;;6235206;28;83885;-69
2021/03/10 04:13:20;;;;;;;53.17;28.65;;;22.70;26.00;;;;;;6239761;28;83739;-69
2021/03/10 04:16:21;;;;;;;48.70;27.77;;;22.60;26.00;;;;;;6236009;27;84833;-69
2021/03/10 04:19:21;;;;;;;50.13;27.63;;;22.70;25.70;;;;;;6232054;28;83335;-68
2021/03/10 04:22:22;;;;;;;51.13;28.13;;;22.80;25.70;;;;;;6236364;28;83930;-68
2021/03/10 04:25:22;;;;;;;55.63;29.27;;;22.80;25.70;;;;;;6232191;27;83680;-68
2021/03/10 04:28:23;;;;;;;48.33;27.90;;;22.70;25.80;;;;;;6233946;28;83529;-69
2021/03/10 04:31:23;;;;;;;51.50;29.20;;;22.80;25.80;;;;;;6239673;27;83760;-68
2021/03/10 04:34:24;;;;;;;51.90;27.27;;;22.80;25.70;;;;;;6232988;28;83982;-68
2021/03/10 04:37:25;;;;;;;49.03;29.77;;;22.80;25.80;;;;;;6232009;28;84252;-67
2021/03/10 04:40:25;;;;;;;50.15;27.52;;;22.80;25.60;;;;;;6233401;28;83619;-68
2021/03/10 04:43:26;;;;;;;49.40;27.13;;;22.80;25.50;;;;;;6232624;28;86562;-68
2021/03/10 04:46:26;;;;;;;48.92;27.38;;;22.90;25.40;;;;;;6241355;28;84183;-68
2021/03/10 04:49:27;;;;;;;53.55;29.20;;;22.90;25.40;;;;;;6239022;28;83401;-70
2021/03/10 04:52:27;;;;;;;54.72;30.42;;;22.90;25.00;;;;;;6236584;27;83321;-70
2021/03/10 04:55:28;;;;;;;49.55;28.20;;;23.00;25.10;;;;;;6243140;28;83822;-70
2021/03/10 04:58:28;;;;;;;49.65;27.77;;;23.10;25.00;;;;;;6241425;28;82834;-69
2021/03/10 05:01:29;;;;;;;54.63;30.58;;;23.10;25.00;;;;;;6233080;28;83405;-69
2021/03/10 05:04:29;;;;;;;57.35;30.45;;;23.10;24.70;;;;;;6226962;28;84118;-69
2021/03/10 05:07:30;;;;;;;50.30;29.67;;;23.10;24.70;;;;;;6241927;27;83479;-69
2021/03/10 05:10:31;;;;;;;59.53;31.60;;;23.10;24.70;;;;;;6238078;28;85307;-66
2021/03/10 05:13:31;;;;;;;53.30;30.08;;;23.20;24.40;;;;;;6241999;28;83580;-68
2021/03/10 05:16:32;;;;;;;57.53;30.33;;;23.10;24.50;;;;;;6242275;27;84179;-68
2021/03/10 05:19:32;;;;;;;53.55;29.67;;;23.20;24.60;;;;;;6229975;28;84584;-71
2021/03/10 05:22:33;;;;;;;54.88;29.95;;;23.20;24.70;;;;;;6235501;28;83530;-69
2021/03/10 05:25:33;;;;;;;54.50;30.48;;;23.20;24.70;;;;;;6242248;28;83236;-69
2021/03/10 05:28:34;;;;;;;57.97;30.48;;;23.20;24.70;;;;;;6224710;27;84031;-71
2021/03/10 05:31:34;;;;;;;53.97;31.00;;;23.30;24.80;;;;;;6230938;28;84032;-71
2021/03/10 05:34:35;;;;;;;51.25;30.30;;;23.30;25.00;;;;;;6234576;28;83466;-71
2021/03/10 05:37:36;;;;;;;54.92;30.42;;;23.30;24.60;;;;;;6229638;28;83883;-69
2021/03/10 05:40:36;;;;;;;50.58;28.35;;;23.30;25.20;;;;;;6232763;28;83389;-71
2021/03/10 05:43:37;;;;;;;55.67;29.58;;;23.30;24.70;;;;;;6237013;28;82994;-70
2021/03/10 05:46:37;;;;;;;44.80;24.55;;;23.40;25.30;;;;;;6239355;28;83862;-69
2021/03/10 05:49:40;;;;;;;42.63;22.27;;;23.40;27.00;;;;;;6221723;28;84382;-69
2021/03/10 05:52:40;;;;;;;34.92;18.85;;;23.30;28.50;;;;;;6242810;28;82898;-71
2021/03/10 05:55:41;;;;;;;33.42;17.77;;;23.30;28.80;;;;;;6233726;28;82834;-68
2021/03/10 05:58:41;;;;;;;40.83;21.90;;;23.30;29.70;;;;;;6238233;28;85463;-71
2021/03/10 06:01:42;;;;;;;44.47;24.80;;;23.20;30.40;;;;;;6240018;27;84027;-72
2021/03/10 06:04:43;;;;;;;37.10;20.10;;;23.30;31.80;;;;;;6240724;28;93765;-71
2021/03/10 06:07:43;;;;;;;35.38;19.88;;;23.20;32.00;;;;;;6232869;27;84283;-73
2021/03/10 06:10:44;;;;;;;38.63;20.42;;;23.30;32.50;;;;;;6240770;28;84735;-68
2021/03/10 06:13:48;;;;;;;33.15;17.63;;;23.20;34.20;;;;;;6236536;28;83731;-70
2021/03/10 06:16:48;;;;;;;30.80;17.00;;;23.30;34.60;;;;;;6242182;28;83418;-69
2021/03/10 06:19:50;;;;;;;28.15;16.63;;;23.30;35.20;;;;;;6237497;27;83622;-70
2021/03/10 06:22:51;;;;;;;28.80;15.63;;;23.30;34.90;;;;;;6234616;28;83181;-69
2021/03/10 06:25:51;;;;;;;28.42;16.42;;;23.40;35.20;;;;;;6235070;28;83451;-69
2021/03/10 06:28:52;;;;;;;26.30;14.90;;;23.30;35.60;;;;;;6228623;28;83446;-71
2021/03/10 06:31:53;;;;;;;28.17;16.08;;;23.30;35.40;;;;;;6234609;27;83064;-70
2021/03/10 06:34:53;;;;;;;29.92;16.15;;;23.30;35.70;;;;;;6228188;28;83217;-68
2021/03/10 06:37:54;;;;;;;32.00;17.55;;;23.30;35.30;;;;;;6232003;28;82975;-72
2021/03/10 06:40:54;;;;;;;33.22;16.02;;;23.30;36.40;;;;;;6213367;28;83950;-69
2021/03/10 06:43:55;;;;;;;31.88;16.67;;;23.30;35.80;;;;;;6239366;28;83342;-69
2021/03/10 06:46:55;;;;;;;34.80;17.20;;;23.30;36.20;;;;;;6239188;28;83499;-74
2021/03/10 06:49:56;;;;;;;32.70;18.23;;;23.40;35.30;;;;;;6241150;28;85898;-68
2021/03/10 06:52:57;;;;;;;33.90;18.65;;;23.40;34.40;;;;;;6233876;28;86318;-73
2021/03/10 06:55:57;;;;;;;41.60;19.65;;;23.40;34.20;;;;;;6229513;27;85438;-72
2021/03/10 06:58:58;;;;;;;35.15;18.20;;;23.40;35.60;;;;;;6240313;28;83495;-69
2021/03/10 07:01:58;;;;;;;34.45;17.33;;;23.30;35.20;;;;;;6239888;27;83209;-70
2021/03/10 07:04:59;;;;;;;35.88;17.65;;;23.30;36.20;;;;;;6244109;28;83443;-71
2021/03/10 07:07:59;;;;;;;37.80;18.25;;;23.30;36.20;;;;;;6235778;28;83560;-69
2021/03/10 07:11:00;;;;;;;29.50;16.75;;;23.30;36.10;;;;;;6240656;28;83709;-73
2021/03/10 07:14:01;;;;;;;29.00;17.35;;;23.30;35.60;;;;;;6246058;28;83445;-72
2021/03/10 07:17:01;;;;;;;28.95;16.52;;;23.30;36.10;;;;;;6238643;28;83329;-74
2021/03/10 07:20:02;;;;;;;29.02;15.73;;;23.20;36.30;;;;;;6222708;28;86120;-72
2021/03/10 07:23:02;;;;;;;29.70;17.35;;;23.20;35.80;;;;;;6240782;28;83067;-70
2021/03/10 07:26:03;;;;;;;30.05;17.63;;;23.20;36.20;;;;;;6243404;28;82995;-67
2021/03/10 07:29:03;;;;;;;32.92;17.52;;;23.20;35.60;;;;;;6244917;28;83579;-69
2021/03/10 07:32:04;;;;;;;34.92;18.55;;;23.20;35.80;;;;;;6219187;28;83001;-74
2021/03/10 07:35:04;;;;;;;30.15;17.55;;;23.20;36.10;;;;;;6246166;27;83924;-73
2021/03/10 07:38:05;;;;;;;26.75;16.13;;;23.20;35.50;;;;;;6239520;28;83627;-72
2021/03/10 07:41:06;;;;;;;30.25;16.13;;;23.20;35.70;;;;;;6231196;27;84008;-71
2021/03/10 07:44:06;;;;;;;31.33;16.35;;;23.20;35.70;;;;;;6233439;28;82867;-71
2021/03/10 07:47:07;;;;;;;31.15;17.38;;;23.20;36.20;;;;;;6226940;28;91911;-72
2021/03/10 07:50:07;;;;;;;30.80;17.50;;;23.20;36.20;;;;;;6245501;28;84096;-72
2021/03/10 07:53:08;;;;;;;34.28;16.98;;;23.20;36.70;;;;;;6246567;28;84273;-70
2021/03/10 07:56:08;;;;;;;29.17;16.52;;;23.30;36.30;;;;;;6245193;28;83249;-72
2021/03/10 07:59:09;;;;;;;34.15;16.08;;;23.30;36.40;;;;;;6235426;28;83486;-71
2021/03/10 08:02:10;;;;;;;29.55;14.90;;;23.30;36.70;;;;;;6236566;28;83738;-71
2021/03/10 08:05:10;;;;;;;27.83;14.27;;;23.30;36.60;;;;;;6235829;28;83198;-71
2021/03/10 08:08:11;;;;;;;27.27;14.77;;;23.30;36.60;;;;;;6235200;27;83565;-75
2021/03/10 08:11:11;;;;;;;25.63;14.55;;;23.30;36.70;;;;;;6246309;27;84013;-73
2021/03/10 08:14:12;;;;;;;22.42;13.77;;;23.30;36.40;;;;;;6241316;28;83996;-72
2021/03/10 08:17:13;;;;;;;25.02;13.75;;;23.30;36.30;;;;;;6220189;28;83009;-72
2021/03/10 08:20:13;;;;;;;22.58;13.10;;;23.30;36.60;;;;;;6242033;28;83586;-71
2021/03/10 08:23:14;;;;;;;21.98;12.80;;;23.30;36.80;;;;;;6245183;28;82840;-71
2021/03/10 08:26:14;;;;;;;21.38;12.45;;;23.30;36.70;;;;;;6221193;28;83507;-72
2021/03/10 08:29:15;;;;;;;21.75;12.10;;;23.30;35.90;;;;;;6210665;28;84231;-70
2021/03/10 08:32:15;;;;;;;19.55;11.50;;;23.30;36.20;;;;;;6236480;28;84103;-71
2021/03/10 08:35:16;;;;;;;19.02;11.98;;;23.30;36.50;;;;;;6238785;28;82987;-68
2021/03/10 08:38:17;;;;;;;17.88;10.38;;;23.30;36.00;;;;;;6232965;28;83254;-69
2021/03/10 08:41:18;;;;;;;17.38;10.07;;;23.40;36.30;;;;;;6240468;28;83330;-69
2021/03/10 08:44:22;;;;;;;16.90;10.10;;;23.40;36.40;;;;;;6238271;28;83559;-69
2021/03/10 08:47:24;;;;;;;16.52;9.80;;;23.40;36.50;;;;;;6236668;28;83100;-69
2021/03/10 08:50:24;;;;;;;16.05;8.45;;;23.40;36.50;;;;;;6225734;28;86224;-70
2021/03/10 08:53:25;;;;;;;14.23;8.05;;;23.40;36.70;;;;;;6238498;28;81227;-70
2021/03/10 08:56:26;;;;;;;11.70;6.97;;;23.40;36.40;;;;;;6219697;28;81649;-70
2021/03/10 08:59:26;;;;;;;13.25;6.65;;;23.40;36.40;;;;;;6223466;28;82997;-70
2021/03/10 09:02:27;;;;;;;10.25;6.20;;;23.50;36.60;;;;;;6218048;28;82275;-71
2021/03/10 09:05:28;;;;;;;8.82;5.55;;;23.50;34.80;;;;;;6247751;28;81209;-70
2021/03/10 09:08:33;;;;;;;9.27;5.80;;;23.50;36.00;;;;;;6214620;28;87970;-70
2021/03/10 09:11:43;;;;;;;8.23;5.53;;;23.50;36.20;;;;;;6252708;28;80875;-70
2021/03/10 09:15:03;;;;;;;8.13;4.55;;;23.50;36.10;;;;;;6225055;28;81210;-70
2021/03/10 09:18:08;;;;;;;9.23;4.80;;;23.50;36.50;;;;;;6221154;28;83383;-68
2021/03/10 09:21:15;;;;;;;7.95;4.85;;;23.50;36.10;;;;;;6233784;28;80626;-70
2021/03/10 09:24:21;;;;;;;8.40;4.38;;;23.50;36.40;;;;;;6229742;27;82323;-69
2021/03/10 09:27:24;;;;;;;6.35;4.47;;;23.50;36.40;;;;;;6238772;27;80640;-66
2021/03/10 09:30:25;;;;;;;7.70;4.75;;;23.60;35.80;;;;;;6237481;28;80459;-71
2021/03/10 09:33:26;;;;;;;6.85;4.45;;;23.60;35.80;;;;;;6234221;28;80531;-71
2021/03/10 09:36:27;;;;;;;6.38;4.32;;;23.60;36.00;;;;;;6222626;28;83111;-71
2021/03/10 09:39:36;;;;;;;5.25;3.80;;;23.60;35.90;;;;;;6231037;28;81712;-70
2021/03/10 09:42:37;;;;;;;5.43;3.72;;;23.60;35.80;;;;;;6244729;28;80747;-68
2021/03/10 09:45:41;;;;;;;6.13;3.38;;;23.60;35.90;;;;;;6217536;28;83430;-73
2021/03/10 09:48:43;;;;;;;6.70;4.18;;;23.60;35.80;;;;;;6226476;28;84116;-70
2021/03/10 09:51:48;;;;;;;5.65;3.67;;;23.60;36.10;;;;;;6221920;28;82337;-69
2021/03/10 09:54:55;;;;;;;7.22;3.38;;;23.70;36.10;;;;;;6222141;28;84023;-68
2021/03/10 09:58:02;;;;;;;5.60;3.40;;;23.70;36.00;;;;;;6222703;28;82537;-69
2021/03/10 10:01:06;;;;;;;6.68;3.50;;;23.70;36.20;;;;;;6215589;28;83268;-69
2021/03/10 10:04:07;;;;;;;7.10;3.80;;;23.80;35.80;;;;;;6207855;28;83065;-71
2021/03/10 10:07:08;;;;;;;6.95;3.95;;;23.80;36.20;;;;;;6223907;28;83361;-70
2021/03/10 10:10:25;;;;;;;6.20;3.40;;;23.80;35.90;;;;;;6223865;28;82483;-69
2021/03/10 10:13:28;;;;;;;5.13;3.03;;;23.80;36.00;;;;;;6243008;28;80441;-71
2021/03/10 10:16:29;;;;;;;6.22;3.50;;;23.80;36.30;;;;;;6234388;28;83003;-70
2021/03/10 10:19:31;;;;;;;6.28;3.75;;;23.90;36.20;;;;;;6223834;28;83673;-69
2021/03/10 10:22:32;;;;;;;4.97;3.67;;;23.90;36.30;;;;;;6244395;28;80717;-67
2021/03/10 10:25:33;;;;;;;4.45;3.65;;;23.90;36.30;;;;;;6246399;27;80797;-67
2021/03/10 10:28:36;;;;;;;6.55;3.67;;;23.90;36.30;;;;;;6233741;28;81778;-70
2021/03/10 10:31:38;;;;;;;5.15;3.83;;;23.90;36.80;;;;;;6233461;28;82192;-69
2021/03/10 10:34:41;;;;;;;6.50;4.00;;;23.90;36.20;;;;;;6248187;28;80857;-70
2021/03/10 10:37:44;;;;;;;11.27;5.80;;;23.90;33.40;;;;;;6242076;28;80791;-70
2021/03/10 10:40:47;;;;;;;11.68;5.90;;;23.80;31.30;;;;;;6224340;28;83287;-71
2021/03/10 10:43:52;;;;;;;11.80;5.95;;;23.80;30.00;;;;;;6222837;28;83359;-73
2021/03/10 10:46:56;;;;;;;11.25;7.05;;;23.80;29.30;;;;;;6225517;28;83162;-70
2021/03/10 10:49:57;;;;;;;10.88;6.68;;;23.80;28.70;;;;;;6229690;28;83309;-71
2021/03/10 10:52:59;;;;;;;10.82;6.85;;;23.70;27.90;;;;;;6224378;28;83175;-70
2021/03/10 10:56:01;;;;;;;11.57;6.53;;;23.70;27.50;;;;;;6216239;28;83366;-70
2021/03/10 10:59:03;;;;;;;10.15;5.93;;;23.70;27.30;;;;;;6233032;28;82919;-70
2021/03/10 11:02:10;;;;;;;9.43;6.32;;;23.70;27.10;;;;;;6226572;28;83468;-71
2021/03/10 11:05:14;;;;;;;8.15;5.22;;;23.70;26.10;;;;;;6229511;28;91958;-68
2021/03/10 11:08:17;;;;;;;9.50;5.80;;;23.70;26.10;;;;;;6227645;28;81418;-71
2021/03/10 11:11:19;;;;;;;7.97;4.68;;;23.70;27.10;;;;;;6221386;28;82162;-71
2021/03/10 11:14:26;;;;;;;9.50;4.70;;;23.70;28.10;;;;;;6247702;28;80815;-71
2021/03/10 11:17:33;;;;;;;6.07;3.80;;;23.80;28.70;;;;;;6221976;28;83435;-71
2021/03/10 11:20:36;;;;;;;5.07;3.22;;;23.80;28.50;;;;;;6228827;28;81953;-72
2021/03/10 11:23:37;;;;;;;6.32;3.17;;;23.80;29.20;;;;;;6201815;28;82538;-71
2021/03/10 11:26:38;;;;;;;5.47;3.30;;;23.90;30.00;;;;;;6225742;28;83320;-73
2021/03/10 11:29:38;;;;;;;5.88;2.90;;;23.90;29.60;;;;;;6246783;28;81560;-72
2021/03/10 11:32:39;;;;;;;5.57;2.95;;;23.90;30.80;;;;;;6228843;28;80343;-69
2021/03/10 11:35:40;;;;;;;5.28;3.28;;;23.90;30.00;;;;;;6239834;28;80277;-72
2021/03/10 11:38:41;;;;;;;4.63;2.63;;;23.90;29.90;;;;;;6217127;28;87582;-70
2021/03/10 11:41:42;;;;;;;4.88;2.75;;;24.00;30.60;;;;;;6236899;27;84383;-72
2021/03/10 11:44:42;;;;;;;3.90;2.75;;;24.00;29.90;;;;;;6221321;28;81600;-72
2021/03/10 11:47:43;;;;;;;5.82;3.08;;;24.10;30.40;;;;;;6245942;28;80878;-70
2021/03/10 11:50:43;;;;;;;3.53;2.63;;;24.10;30.00;;;;;;6240560;28;80838;-72
2021/03/10 11:53:44;;;;;;;3.92;2.60;;;24.10;29.60;;;;;;6221875;28;81538;-70
2021/03/10 11:56:45;;;;;;;3.95;2.40;;;24.20;29.80;;;;;;6220603;28;80825;-70
2021/03/10 11:59:45;;;;;;;4.82;2.78;;;24.20;29.30;;;;;;6219410;28;81537;-66
2021/03/10 12:02:53;;;;;;;3.80;2.65;;;24.10;29.00;;;;;;6220307;28;81672;-66
2021/03/10 12:06:03;;;;;;;5.95;3.05;;;24.10;28.80;;;;;;6224740;28;82716;-67
2021/03/10 12:09:04;;;;;;;3.42;2.45;;;24.10;28.70;;;;;;6241145;28;80708;-67
2021/03/10 12:12:05;;;;;;;4.65;2.13;;;24.20;28.50;;;;;;6242812;28;80232;-69
2021/03/10 12:15:13;;;;;;;4.70;2.42;;;24.20;28.40;;;;;;6217830;28;81969;-70
2021/03/10 12:18:13;;;;;;;5.60;3.33;;;24.20;28.60;;;;;;6245161;28;81875;-69
2021/03/10 12:21:14;;;;;;;5.05;2.80;;;24.20;28.20;;;;;;6237778;27;80240;-70
2021/03/10 12:24:14;;;;;;;5.63;3.25;;;24.30;28.20;;;;;;6237582;28;80666;-70
2021/03/10 12:27:24;;;;;;;3.70;2.40;;;24.30;28.00;;;;;;6244299;28;81008;-69
2021/03/10 12:30:25;;;;;;;3.88;2.65;;;24.30;28.30;;;;;;6238883;28;81656;-68
2021/03/10 12:33:25;;;;;;;5.00;2.40;;;24.30;28.10;;;;;;6240944;28;84484;-69
2021/03/10 12:36:26;;;;;;;5.47;2.70;;;24.20;27.90;;;;;;6236625;27;81087;-68
2021/03/10 12:39:27;;;;;;;5.88;3.20;;;24.10;28.00;;;;;;6228607;28;81505;-68
2021/03/10 12:42:27;;;;;;;6.78;2.85;;;24.10;28.00;;;;;;6250299;28;80636;-68
2021/03/10 12:45:28;;;;;;;4.80;3.03;;;24.10;28.10;;;;;;6241014;27;81208;-68
2021/03/10 12:48:28;;;;;;;6.00;3.03;;;24.20;28.40;;;;;;6244144;27;80649;-70
2021/03/10 12:51:29;;;;;;;6.72;3.67;;;24.30;28.30;;;;;;6244587;28;80833;-68
2021/03/10 12:54:29;;;;;;;6.57;3.70;;;24.20;27.90;;;;;;6239555;27;80713;-68
2021/03/10 12:57:30;;;;;;;6.90;3.55;;;24.20;28.10;;;;;;6238511;28;80759;-68
2021/03/10 13:00:31;;;;;;;7.82;3.53;;;24.30;28.00;;;;;;6239161;28;81398;-68
2021/03/10 13:03:32;;;;;;;5.22;3.47;;;24.30;28.20;;;;;;6239870;28;81355;-68
2021/03/10 13:06:33;;;;;;;6.07;3.97;;;24.30;28.10;;;;;;6235051;28;80517;-67
2021/03/10 13:09:33;;;;;;;7.82;4.30;;;24.30;28.10;;;;;;6223198;27;80628;-68
2021/03/10 13:12:36;;;;;;;7.30;4.47;;;24.30;27.90;;;;;;6247573;28;80571;-66
2021/03/10 13:15:36;;;;;;;7.20;4.63;;;24.20;27.60;;;;;;6244103;28;81302;-70
2021/03/10 13:18:37;;;;;;;7.65;4.80;;;24.20;27.80;;;;;;6242182;28;80357;-69
2021/03/10 13:21:37;;;;;;;19.05;4.45;;;24.20;27.40;;;;;;6244649;27;81599;-71
2021/03/10 13:24:38;;;;;;;14.70;5.30;;;24.10;27.60;;;;;;6224615;28;83303;-71
2021/03/10 13:27:40;;;;;;;10.63;4.32;;;24.10;27.30;;;;;;6232111;28;80380;-69
2021/03/10 13:30:41;;;;;;;6.72;4.53;;;24.10;26.90;;;;;;6231825;28;80322;-69
2021/03/10 13:33:41;;;;;;;7.95;4.45;;;24.10;26.90;;;;;;6239134;28;80615;-69
2021/03/10 13:36:42;;;;;;;7.07;4.30;;;24.10;26.90;;;;;;6245259;28;81521;-68
2021/03/10 13:39:42;;;;;;;5.45;3.88;;;24.10;27.10;;;;;;6232538;28;81114;-66
2021/03/10 13:42:43;;;;;;;9.40;4.57;;;24.10;27.00;;;;;;6232700;28;81692;-70
2021/03/10 13:45:44;;;;;;;8.45;4.57;;;24.10;27.00;;;;;;6231927;28;80867;-72
2021/03/10 13:48:45;;;;;;;7.05;4.30;;;24.10;27.40;;;;;;6244588;28;80520;-69
2021/03/10 13:51:46;;;;;;;7.57;4.47;;;24.10;27.10;;;;;;6239479;28;80506;-71
2021/03/10 13:54:47;;;;;;;8.68;4.68;;;24.10;26.90;;;;;;6234702;28;80592;-73
2021/03/10 13:57:48;;;;;;;5.63;3.88;;;24.10;26.90;;;;;;6251944;28;80947;-75
2021/03/10 14:00:48;;;;;;;8.07;5.05;;;24.10;27.50;;;;;;6246359;27;80932;-72
2021/03/10 14:03:49;;;;;;;7.30;4.90;;;24.10;27.10;;;;;;6236219;28;80631;-73
2021/03/10 14:06:49;;;;;;;8.35;4.90;;;24.10;27.20;;;;;;6238344;28;81020;-73
2021/03/10 14:09:51;;;;;;;6.57;4.32;;;24.00;27.00;;;;;;6238173;28;81194;-72
2021/03/10 14:12:52;;;;;;;8.75;5.28;;;24.00;27.30;;;;;;6235585;27;81737;-73
2021/03/10 14:15:52;;;;;;;7.10;4.60;;;24.00;26.90;;;;;;6238621;28;80773;-71
2021/03/10 14:18:53;;;;;;;8.02;4.57;;;24.00;27.10;;;;;;6244971;28;81201;-74
2021/03/10 14:21:54;;;;;;;7.30;4.40;;;24.00;27.50;;;;;;6234943;28;80231;-71
2021/03/10 14:24:54;;;;;;;8.40;5.13;;;24.00;27.10;;;;;;6231561;28;80416;-72
2021/03/10 14:27:55;;;;;;;7.38;4.53;;;24.00;27.00;;;;;;6237050;28;80864;-72
2021/03/10 14:30:56;;;;;;;9.90;5.05;;;24.00;27.50;;;;;;6240432;27;80960;-74
2021/03/10 14:33:56;;;;;;;11.35;5.15;;;24.00;27.10;;;;;;6247450;28;81677;-74
2021/03/10 14:36:57;;;;;;;9.30;5.60;;;24.00;27.40;;;;;;6240923;28;80920;-75
2021/03/10 14:39:57;;;;;;;7.90;4.75;;;24.00;27.90;;;;;;6237497;28;80288;-73
2021/03/10 14:42:58;;;;;;;9.75;5.50;;;24.00;27.80;;;;;;6244672;28;81496;-75
2021/03/10 14:45:58;;;;;;;10.25;4.80;;;24.00;27.50;;;;;;6240339;28;80971;-73
2021/03/10 14:48:59;;;;;;;6.63;4.88;;;24.00;27.50;;;;;;6236299;28;80610;-73
2021/03/10 14:52:00;;;;;;;8.45;4.97;;;24.00;27.40;;;;;;6244802;28;80770;-72
2021/03/10 14:55:00;;;;;;;9.18;5.05;;;24.00;27.60;;;;;;6237820;28;83431;-72
2021/03/10 14:58:01;;;;;;;8.07;4.65;;;24.00;27.70;;;;;;6245881;27;81727;-72
2021/03/10 15:01:02;;;;;;;7.53;4.28;;;24.10;27.80;;;;;;6240963;28;81386;-68
2021/03/10 15:04:02;;;;;;;7.57;4.43;;;24.00;27.60;;;;;;6246071;28;80361;-72
2021/03/10 15:07:03;;;;;;;9.73;5.72;;;24.00;27.70;;;;;;6201947;28;80798;-73
2021/03/10 15:10:03;;;;;;;18.95;7.00;;;24.00;27.60;;;;;;6237807;28;80271;-72
2021/03/10 15:13:04;;;;;;;17.33;7.47;;;24.00;27.70;;;;;;6240461;28;80844;-72
2021/03/10 15:16:05;;;;;;;33.20;10.32;;;24.00;27.80;;;;;;6235148;28;80600;-68
2021/03/10 15:19:05;;;;;;;22.83;8.70;;;23.90;27.60;;;;;;6229195;28;83474;-68
2021/03/10 15:22:06;;;;;;;25.27;9.10;;;23.90;27.90;;;;;;6245497;27;84422;-67
2021/03/10 15:25:06;;;;;;;25.45;9.25;;;23.90;28.00;;;;;;6247984;28;80710;-68
2021/03/10 15:28:07;;;;;;;24.80;9.65;;;23.90;28.20;;;;;;6232777;27;80724;-68